x

Virginia Beach 64 Nm East Of Virginia Beach, Va (44014) Wave Buoy

1:50 - Sat 3rd Dec 2016 All times are EST. -5 hours from GMT.

  • Sig Wave height 7.2ft
  • Swell Direction
  • Peak Period 7s
  • Average Period 5s
  • Wind
    22mph, 29mph gusts
  • Sea Temp 60°f
  • Luft Temp 50°f
  • Sea Pressure 1019.7mb
  • Virginia Beach 64 Nm East Of Virginia Beach, Va
  • Virginia Beach 64 Nm East Of Virginia Beach, Va

More Historic Weather Station data

Upgrade to MSW Pro to gain access to the past 30 days of data for over 8000 Wavebouys and Weather Stations around the globe.

Join Pro

Comparision Forecast

View Surf forecast
   
Sa 12/03 1:50 7ft 7s 5s 22 29 mph 1019.7mb 60f 50f
12:50 7.5ft 7s 5s 22 29 mph 1020.8mb 60f 49f
11:50 8ft 7s 6s 22 29 mph 1021mb 60f 49f
10:50 8ft 7s 6s 25 29 mph 1021.4mb 60f 49f
9:50 8.5ft 7s 6s 25 29 mph 1021.2mb 60f 50f
8:50 8.5ft 7s  -  27 34 mph 1020.7mb 60f 49f
7:50 8ft 6s 5s 27 34 mph 1020.4mb 60f 49f
6:50 7ft 7s 5s 27 31 mph 1020.2mb 60f 49f
5:50 7.5ft 7s 5s 27 34 mph 1019.7mb 60f 49f
4:50 8ft 6s 5s 25 31 mph 1019.2mb 60f 49f
3:50 7.5ft 6s 5s 27 31 mph 1018.5mb 60f 49f
2:50 6.5ft 6s 5s 27 31 mph 1018.7mb 60f 49f
1:50 5ft 5s 4s 25 34 mph 1018.7mb 60f 49f
12:50 4.5ft 5s 4s 27 31 mph 1018.3mb 60f 49f
Fr 12/02 11:50 4ft 5s 4s 22 29 mph 1018.1mb 60f 51f
10:50 4ft 5s 4s 22 27 mph 1017.9mb 60f 55f
9:50 3.5ft 5s 4s 22 27 mph 1017.9mb 60f 55f
7:50 3ft 5s 5s 13 16 mph 1017.8mb 60f 53f
6:50 3.5ft 5s 5s 11 13 mph 1017.7mb 60f 52f
5:50 3.5ft 6s 4s 11 16 mph 1017.6mb 60f 52f
4:50 4ft 6s 5s 13 16 mph 1017.1mb 59f 51f
3:50 4ft 6s 4s 16 20 mph 1017.1mb 60f 52f
2:50 4ft 6s 4s 16 20 mph 1016.8mb 60f 51f
1:50 4ft 6s 5s 16 20 mph 1016.7mb 60f 51f
12:50 3.5ft 5s 5s 13 18 mph 1017.3mb 60f 51f
11:50 4ft 5s 4s 16 20 mph 1017.6mb 60f 50f
10:50 4ft 5s 5s 16 22 mph 1018.4mb 60f 50f
9:50 4ft 6s 4s 16 20 mph 1018.4mb 60f 50f
8:50 4.5ft 6s 5s 18 25 mph 1018.2mb 60f 51f
7:50 4.5ft 6s 5s 16 22 mph 1017.5mb 60f 51f
6:50 5ft 6s 5s 18 22 mph 1016.7mb 59f 51f
5:50 5ft 6s 4s 20 25 mph 1016.2mb 59f 51f
4:50 5ft 6s 5s 22 27 mph 1015.3mb 59f 51f
3:50 5ft 5s 4s 22 27 mph 1014.7mb 59f 51f
2:50 4.5ft 5s 4s 20 25 mph 1014.5mb 59f 53f
1:50 4.5ft 5s 4s 18 22 mph 1013.9mb 59f 53f
12:50 3.5ft 8s 4s 22 25 mph 1013.4mb 59f 54f
Do 12/01 11:50 3.5ft 8s 5s 18 27 mph 1012.5mb 59f 57f
10:50 3.5ft 8s 5s 11 13 mph 1012.6mb 59f 58f
9:50 4.5ft 9s 5s 13
mph
1012.1mb 59f 58f
8:50 4ft 7s 5s 16 20 mph 1011.6mb 59f 59f
7:50 4ft 8s 6s 18 22 mph 1011.2mb 59f 59f
6:50 4ft 8s 6s 9 11 mph 1010.8mb 60f 58f
5:50 5ft 8s 6s 9 11 mph 1010.1mb 60f 59f
4:50 5ft 7s 6s 7
mph
1009.2mb 60f 58f
3:50 5ft 8s 6s 7 9 mph 1008.4mb 60f 60f
2:50 6ft 8s 6s 2 4 mph 1008.1mb 60f 61f
1:50 6ft 8s 6s 4
mph
1008mb 60f 60f
12:50 6ft 8s 6s 7 9 mph 1008.1mb 60f 59f
11:50 6.5ft 8s 6s 4 7 mph 1008.2mb 60f 60f
10:50 5.5ft 8s 6s 11 16 mph 1008.4mb 60f 60f
9:50 6ft 8s 6s 11 13 mph 1008.3mb 60f 60f
8:50 7ft 8s 6s 11 13 mph 1007.6mb 60f 62f
7:50 7ft 8s 6s 13 16 mph 1006.7mb 60f 62f
6:50 7.5ft 8s 6s 16 18 mph 1005.3mb 60f 64f
5:50 7.5ft 8s 6s 16 20 mph 1005.1mb 60f 62f
4:50 7ft 8s 6s 22 25 mph 1004.5mb 60f 64f
3:50 6.5ft 7s 5s 27 31 mph 1004.3mb 60f 65f
2:50 7ft 8s 5s 25 27 mph 1004.3mb 60f 64f
1:50 6.5ft 8s 5s 22 27 mph 1004.8mb 60f 63f
12:50 6.5ft 7s 5s 25 27 mph 1005.4mb 60f 64f
Mi 11/30 11:50 6ft 8s 5s 25 29 mph 1006.5mb 60f 64f
10:50 6.5ft 7s 5s 22 27 mph 1007.1mb 60f 64f
9:50 6ft 8s 5s 25 29 mph 1007.8mb 60f 64f
8:50 6ft 7s 5s 22 27 mph 1008.1mb 60f 63f
7:50 7ft 7s 5s 18 22 mph 1009.3mb 60f 63f
6:50 7ft 7s 5s 22 27 mph 1010mb 60f 63f
5:50 6ft 8s 5s 22 29 mph 1009.9mb 60f 63f
4:50 5.5ft 7s 5s 20 25 mph 1010.2mb 60f 64f
3:50 5.5ft 8s 5s 18 22 mph 1010.7mb 60f 64f
2:50 5.5ft 8s 6s 18 22 mph 1010.6mb 60f 63f
1:50 5ft 7s 5s 20 27 mph 1011.4mb 60f 64f
12:50 5.5ft 8s 5s 18 20 mph 1011.8mb 60f 62f
11:50 5.5ft 8s 5s 20 25 mph 1012.2mb 60f 64f
10:50 6ft 8s 6s 18 20 mph 1013.4mb 60f 63f
9:50 6ft 8s 6s 18 20 mph 1013.9mb 60f 63f
8:50 5ft 8s 5s 18 22 mph 1014.4mb 61f 62f
7:50 5.5ft 8s 6s 16 18 mph 1014.6mb 61f 62f
6:50 5.5ft 7s 5s 16 18 mph 1014.6mb 61f 62f
5:50 5.5ft 8s 5s 16 20 mph 1014.1mb 61f 63f
4:50 6.5ft 8s 6s 18 20 mph 1014.1mb 61f 63f
3:50 6ft 8s 5s 16 18 mph 1014.5mb 61f 63f
2:50 6.5ft 7s 6s 18 20 mph 1014.9mb 61f 63f
1:50 6ft 8s 5s 18 20 mph 1015mb 61f 63f
12:50 6ft 7s 6s 20 22 mph 1015.2mb 61f 64f
Di 11/29 11:50 6ft 7s 6s 18 22 mph 1015.7mb 61f 64f
10:50 7ft 8s 6s 18 22 mph 1015.9mb 61f 64f
9:50 7.5ft 8s 6s 20 22 mph 1015.7mb 61f 65f
8:50 7ft 8s 6s 18 20 mph 1016.1mb 61f 65f
7:50 7ft 8s 6s 20 22 mph 1015.8mb 61f 65f